Airfield :
LOGIN :

Register | Disclaimer

   EN    FR    IT 

 










Legend :    VFR   Marginal VFR   IFR   Intensive IFR   Very Intensive IFR
Visi :
Ceiling :
>= 8 km
>= 3000ft
5 to 8 km
1000 to 3000 ft
1500m to 5 km
500 to 1000 ft
800 to 1500m
200 to 500 ft
< 800m
< 200 ft
Symbols :   Thunderstorms  Fog  Heavy snow  Heavy precipitations  Wind > 20 kt
SIGMETs :     Misc.  Thunderstorms  Icing  Turbulence  Mountain Waves  Volcanic Ashes






- Airport Elevation : 726 ft
- IATA code : DIJ


LFSD - Dijon

CURRENT METAR :
  • 130930Z AUTO 27019KT 9999 FEW038 BKN054 08/02 Q0987

EXPIRED METARs :
  • 130900Z AUTO 27015KT 240V300 9999 SCT038 BKN049 BKN058 08/02 Q0986
  • 130830Z AUTO 27020G33KT 9999 FEW034 BKN046 BKN056 07/02 Q0985
  • 130800Z AUTO 27017G30KT 9999 BKN034/// BKN041/// BKN052/// ///TCU 07/03 Q0985
  • 130730Z AUTO 26012G22KT 220V300 9999 BKN030 BKN035 OVC046 07/03 Q0984
  • 130700Z AUTO 23008KT 210V270 9999 OVC029 07/04 Q0983

Expired Forecast.



MET'MAP, your aeronautical weather chart ! - Copyright ORBIFLY December 2007 - Disclaimer

ORBIFLY MET'MAP TEAM :

Programming & Development : Alexandra Zaïnal
Concept & original design : Baudouin d'Aumeries
Assistance for programming : Marc-Olivier Méhu
Technical & hardware support : Manuel Goepfert

Contact : metmap@orbifly.com




SOURCES & CREDITS :

   NOAA